Terminal Aerodrome Forecast
Issued by NWS Wilmington, NC

Home | Current Version | Previous Version | Text Only | Print | Product List | Glossary On
Versions: 1 2 3 4 5 6 7 8 9 10 11 12 13
009
FTUS42 KILM 202337
TAFMYR
TAF
KMYR 202337Z 2100/2124 17007KT P6SM SCT070
     FM210800 VRB03KT 3/4SM BR BKN004
     FM211500 16006KT 4SM BR OVC007
     FM212000 20009KT 3SM -RA BR BKN003 OVC007
      AMD LTD TO CLD VIS AND WIND 2104/2111=

USA.gov is the U.S. government's official web portal to all federal, state and local government web resources and services.